sensor_id;sensor_type;location;lat;lon;timestamp;P1;durP1;ratioP1;P2;durP2;ratioP2
32200;SDS011;18701;45.588;5.288;2022-12-18T00:00:43;68.05;;;29.70;;
32200;SDS011;18701;45.588;5.288;2022-12-18T00:03:11;69.60;;;28.80;;
32200;SDS011;18701;45.588;5.288;2022-12-18T00:05:37;61.88;;;28.83;;
32200;SDS011;18701;45.588;5.288;2022-12-18T00:08:14;65.28;;;28.33;;
32200;SDS011;18701;45.588;5.288;2022-12-18T00:10:40;64.28;;;27.90;;
32200;SDS011;18701;45.588;5.288;2022-12-18T00:13:07;62.92;;;27.08;;
32200;SDS011;18701;45.588;5.288;2022-12-18T00:15:33;60.78;;;27.40;;
32200;SDS011;18701;45.588;5.288;2022-12-18T00:17:59;63.55;;;26.83;;
32200;SDS011;18701;45.588;5.288;2022-12-18T00:20:25;57.20;;;25.33;;
32200;SDS011;18701;45.588;5.288;2022-12-18T00:22:51;62.75;;;27.50;;
32200;SDS011;18701;45.588;5.288;2022-12-18T00:25:17;61.97;;;25.98;;
32200;SDS011;18701;45.588;5.288;2022-12-18T00:27:43;61.92;;;26.23;;
32200;SDS011;18701;45.588;5.288;2022-12-18T00:30:09;65.32;;;25.70;;
32200;SDS011;18701;45.588;5.288;2022-12-18T00:32:35;55.88;;;26.17;;
32200;SDS011;18701;45.588;5.288;2022-12-18T00:35:00;56.20;;;25.23;;
32200;SDS011;18701;45.588;5.288;2022-12-18T00:37:26;55.45;;;25.95;;
32200;SDS011;18701;45.588;5.288;2022-12-18T00:39:52;49.65;;;22.90;;
32200;SDS011;18701;45.588;5.288;2022-12-18T00:42:17;53.65;;;23.75;;
32200;SDS011;18701;45.588;5.288;2022-12-18T00:45:02;51.17;;;22.52;;
32200;SDS011;18701;45.588;5.288;2022-12-18T00:47:28;50.85;;;24.05;;
32200;SDS011;18701;45.588;5.288;2022-12-18T00:49:53;55.05;;;24.25;;
32200;SDS011;18701;45.588;5.288;2022-12-18T00:52:19;52.47;;;23.70;;
32200;SDS011;18701;45.588;5.288;2022-12-18T00:54:45;48.25;;;22.23;;
32200;SDS011;18701;45.588;5.288;2022-12-18T00:57:10;53.28;;;24.35;;
32200;SDS011;18701;45.588;5.288;2022-12-18T00:59:36;47.90;;;23.23;;
32200;SDS011;18701;45.588;5.288;2022-12-18T01:02:01;50.05;;;22.58;;
32200;SDS011;18701;45.588;5.288;2022-12-18T01:04:27;45.50;;;22.67;;
32200;SDS011;18701;45.588;5.288;2022-12-18T01:06:56;52.65;;;22.63;;
32200;SDS011;18701;45.588;5.288;2022-12-18T01:09:22;44.22;;;21.13;;
32200;SDS011;18701;45.588;5.288;2022-12-18T01:11:48;50.10;;;23.55;;
32200;SDS011;18701;45.588;5.288;2022-12-18T01:14:13;51.33;;;24.05;;
32200;SDS011;18701;45.588;5.288;2022-12-18T01:16:39;49.20;;;24.67;;
32200;SDS011;18701;45.588;5.288;2022-12-18T01:19:04;45.13;;;22.15;;
32200;SDS011;18701;45.588;5.288;2022-12-18T01:21:30;48.65;;;22.42;;
32200;SDS011;18701;45.588;5.288;2022-12-18T01:23:56;47.72;;;22.08;;
32200;SDS011;18701;45.588;5.288;2022-12-18T01:26:22;49.20;;;22.65;;
32200;SDS011;18701;45.588;5.288;2022-12-18T01:28:49;49.38;;;22.83;;
32200;SDS011;18701;45.588;5.288;2022-12-18T01:33:44;45.83;;;22.50;;
32200;SDS011;18701;45.588;5.288;2022-12-18T01:36:18;47.70;;;22.20;;
32200;SDS011;18701;45.588;5.288;2022-12-18T01:38:51;48.17;;;22.48;;
32200;SDS011;18701;45.588;5.288;2022-12-18T01:41:19;47.25;;;22.48;;
32200;SDS011;18701;45.588;5.288;2022-12-18T01:43:53;52.13;;;23.85;;
32200;SDS011;18701;45.588;5.288;2022-12-18T01:46:22;56.42;;;25.65;;
32200;SDS011;18701;45.588;5.288;2022-12-18T01:48:49;53.17;;;23.63;;
32200;SDS011;18701;45.588;5.288;2022-12-18T01:51:18;51.70;;;24.80;;
32200;SDS011;18701;45.588;5.288;2022-12-18T01:53:44;55.15;;;24.00;;
32200;SDS011;18701;45.588;5.288;2022-12-18T01:56:16;52.60;;;23.65;;
32200;SDS011;18701;45.588;5.288;2022-12-18T01:58:48;59.35;;;27.10;;
32200;SDS011;18701;45.588;5.288;2022-12-18T02:01:17;53.40;;;24.33;;
32200;SDS011;18701;45.588;5.288;2022-12-18T02:03:43;55.45;;;24.27;;
32200;SDS011;18701;45.588;5.288;2022-12-18T02:06:13;54.30;;;23.70;;
32200;SDS011;18701;45.588;5.288;2022-12-18T02:11:48;52.50;;;23.33;;
32200;SDS011;18701;45.588;5.288;2022-12-18T02:14:24;57.60;;;25.33;;
32200;SDS011;18701;45.588;5.288;2022-12-18T02:17:22;57.30;;;26.15;;
32200;SDS011;18701;45.588;5.288;2022-12-18T02:27:58;62.72;;;26.08;;
32200;SDS011;18701;45.588;5.288;2022-12-18T02:30:26;65.03;;;25.90;;
32200;SDS011;18701;45.588;5.288;2022-12-18T02:32:56;59.03;;;25.65;;
32200;SDS011;18701;45.588;5.288;2022-12-18T02:35:25;57.83;;;25.48;;
32200;SDS011;18701;45.588;5.288;2022-12-18T02:37:54;58.78;;;23.92;;
32200;SDS011;18701;45.588;5.288;2022-12-18T02:40:21;58.75;;;26.08;;
32200;SDS011;18701;45.588;5.288;2022-12-18T02:42:49;60.30;;;25.83;;
32200;SDS011;18701;45.588;5.288;2022-12-18T02:45:15;52.45;;;23.33;;
32200;SDS011;18701;45.588;5.288;2022-12-18T02:47:42;48.53;;;23.15;;
32200;SDS011;18701;45.588;5.288;2022-12-18T02:55:51;46.03;;;21.52;;
32200;SDS011;18701;45.588;5.288;2022-12-18T03:04:14;39.08;;;20.38;;
32200;SDS011;18701;45.588;5.288;2022-12-18T03:06:33;40.72;;;19.60;;
32200;SDS011;18701;45.588;5.288;2022-12-18T03:09:06;40.50;;;19.67;;
32200;SDS011;18701;45.588;5.288;2022-12-18T03:11:36;39.35;;;19.08;;
32200;SDS011;18701;45.588;5.288;2022-12-18T03:14:23;44.70;;;20.73;;
32200;SDS011;18701;45.588;5.288;2022-12-18T03:16:51;43.95;;;20.85;;
32200;SDS011;18701;45.588;5.288;2022-12-18T03:19:20;45.57;;;21.30;;
32200;SDS011;18701;45.588;5.288;2022-12-18T03:21:51;44.35;;;21.17;;
32200;SDS011;18701;45.588;5.288;2022-12-18T03:24:20;39.78;;;19.40;;
32200;SDS011;18701;45.588;5.288;2022-12-18T03:26:49;42.17;;;20.17;;
32200;SDS011;18701;45.588;5.288;2022-12-18T03:29:19;42.03;;;20.63;;
32200;SDS011;18701;45.588;5.288;2022-12-18T03:31:53;39.83;;;20.50;;
32200;SDS011;18701;45.588;5.288;2022-12-18T03:34:23;40.88;;;20.15;;
32200;SDS011;18701;45.588;5.288;2022-12-18T03:37:00;40.20;;;19.98;;
32200;SDS011;18701;45.588;5.288;2022-12-18T03:39:26;36.85;;;18.58;;
32200;SDS011;18701;45.588;5.288;2022-12-18T03:41:56;37.78;;;19.83;;
32200;SDS011;18701;45.588;5.288;2022-12-18T03:50:19;37.28;;;19.55;;
32200;SDS011;18701;45.588;5.288;2022-12-18T03:52:57;37.83;;;19.27;;
32200;SDS011;18701;45.588;5.288;2022-12-18T03:55:27;33.90;;;17.70;;
32200;SDS011;18701;45.588;5.288;2022-12-18T03:57:57;38.40;;;19.30;;
32200;SDS011;18701;45.588;5.288;2022-12-18T04:00:24;31.60;;;17.00;;
32200;SDS011;18701;45.588;5.288;2022-12-18T04:02:51;36.70;;;17.85;;
32200;SDS011;18701;45.588;5.288;2022-12-18T04:05:19;33.65;;;17.73;;
32200;SDS011;18701;45.588;5.288;2022-12-18T04:07:47;37.35;;;18.13;;
32200;SDS011;18701;45.588;5.288;2022-12-18T04:10:14;35.25;;;18.33;;
32200;SDS011;18701;45.588;5.288;2022-12-18T04:12:41;34.42;;;17.23;;
32200;SDS011;18701;45.588;5.288;2022-12-18T04:15:07;33.72;;;17.52;;
32200;SDS011;18701;45.588;5.288;2022-12-18T04:17:33;36.92;;;18.05;;
32200;SDS011;18701;45.588;5.288;2022-12-18T04:19:59;35.35;;;17.90;;
32200;SDS011;18701;45.588;5.288;2022-12-18T04:22:25;33.13;;;18.13;;
32200;SDS011;18701;45.588;5.288;2022-12-18T04:24:50;31.08;;;16.33;;
32200;SDS011;18701;45.588;5.288;2022-12-18T04:27:16;33.72;;;18.02;;
32200;SDS011;18701;45.588;5.288;2022-12-18T04:29:41;31.85;;;15.88;;
32200;SDS011;18701;45.588;5.288;2022-12-18T04:32:07;31.75;;;16.70;;
32200;SDS011;18701;45.588;5.288;2022-12-18T04:34:33;33.13;;;16.80;;
32200;SDS011;18701;45.588;5.288;2022-12-18T04:36:59;34.40;;;18.67;;
32200;SDS011;18701;45.588;5.288;2022-12-18T04:39:24;33.15;;;16.52;;
32200;SDS011;18701;45.588;5.288;2022-12-18T04:41:50;32.45;;;16.15;;
32200;SDS011;18701;45.588;5.288;2022-12-18T04:44:16;34.33;;;16.77;;
32200;SDS011;18701;45.588;5.288;2022-12-18T04:46:41;33.70;;;17.17;;
32200;SDS011;18701;45.588;5.288;2022-12-18T04:49:07;27.67;;;15.02;;
32200;SDS011;18701;45.588;5.288;2022-12-18T04:51:32;33.80;;;16.98;;
32200;SDS011;18701;45.588;5.288;2022-12-18T04:53:58;26.88;;;15.70;;
32200;SDS011;18701;45.588;5.288;2022-12-18T04:56:24;32.53;;;16.80;;
32200;SDS011;18701;45.588;5.288;2022-12-18T04:58:49;33.13;;;17.13;;
32200;SDS011;18701;45.588;5.288;2022-12-18T05:01:16;29.98;;;15.88;;
32200;SDS011;18701;45.588;5.288;2022-12-18T05:03:42;34.00;;;17.30;;
32200;SDS011;18701;45.588;5.288;2022-12-18T05:06:08;33.38;;;16.85;;
32200;SDS011;18701;45.588;5.288;2022-12-18T05:08:34;31.50;;;16.70;;
32200;SDS011;18701;45.588;5.288;2022-12-18T05:11:04;35.22;;;17.63;;
32200;SDS011;18701;45.588;5.288;2022-12-18T05:13:35;32.53;;;17.40;;
32200;SDS011;18701;45.588;5.288;2022-12-18T05:16:02;33.13;;;16.73;;
32200;SDS011;18701;45.588;5.288;2022-12-18T05:18:28;35.63;;;18.10;;
32200;SDS011;18701;45.588;5.288;2022-12-18T05:20:54;31.20;;;17.13;;
32200;SDS011;18701;45.588;5.288;2022-12-18T05:23:21;33.67;;;17.85;;
32200;SDS011;18701;45.588;5.288;2022-12-18T05:25:52;29.02;;;16.98;;
32200;SDS011;18701;45.588;5.288;2022-12-18T05:28:17;36.53;;;17.65;;
32200;SDS011;18701;45.588;5.288;2022-12-18T05:30:47;34.03;;;17.90;;
32200;SDS011;18701;45.588;5.288;2022-12-18T05:33:17;31.67;;;16.42;;
32200;SDS011;18701;45.588;5.288;2022-12-18T05:35:49;33.17;;;15.85;;
32200;SDS011;18701;45.588;5.288;2022-12-18T05:38:16;31.15;;;15.25;;
32200;SDS011;18701;45.588;5.288;2022-12-18T05:40:43;29.55;;;15.88;;
32200;SDS011;18701;45.588;5.288;2022-12-18T05:43:09;34.35;;;17.75;;
32200;SDS011;18701;45.588;5.288;2022-12-18T05:45:38;30.17;;;16.48;;
32200;SDS011;18701;45.588;5.288;2022-12-18T05:48:08;29.17;;;16.58;;
32200;SDS011;18701;45.588;5.288;2022-12-18T05:50:34;31.35;;;15.38;;
32200;SDS011;18701;45.588;5.288;2022-12-18T05:53:01;31.75;;;16.50;;
32200;SDS011;18701;45.588;5.288;2022-12-18T05:55:27;29.90;;;16.55;;
32200;SDS011;18701;45.588;5.288;2022-12-18T05:57:53;28.42;;;14.88;;
32200;SDS011;18701;45.588;5.288;2022-12-18T06:00:18;28.27;;;14.75;;
32200;SDS011;18701;45.588;5.288;2022-12-18T06:02:47;28.90;;;16.08;;
32200;SDS011;18701;45.588;5.288;2022-12-18T06:05:13;32.70;;;16.42;;
32200;SDS011;18701;45.588;5.288;2022-12-18T06:07:38;26.63;;;14.32;;
32200;SDS011;18701;45.588;5.288;2022-12-18T06:10:04;28.30;;;15.15;;
32200;SDS011;18701;45.588;5.288;2022-12-18T06:12:30;27.17;;;14.63;;
32200;SDS011;18701;45.588;5.288;2022-12-18T06:14:58;27.05;;;15.15;;
32200;SDS011;18701;45.588;5.288;2022-12-18T06:17:27;29.48;;;14.80;;
32200;SDS011;18701;45.588;5.288;2022-12-18T06:19:54;30.95;;;15.82;;
32200;SDS011;18701;45.588;5.288;2022-12-18T06:22:19;31.17;;;15.27;;
32200;SDS011;18701;45.588;5.288;2022-12-18T06:24:45;31.15;;;15.98;;
32200;SDS011;18701;45.588;5.288;2022-12-18T06:27:10;26.70;;;14.48;;
32200;SDS011;18701;45.588;5.288;2022-12-18T06:29:36;30.42;;;15.52;;
32200;SDS011;18701;45.588;5.288;2022-12-18T06:32:01;27.88;;;14.32;;
32200;SDS011;18701;45.588;5.288;2022-12-18T06:34:27;27.42;;;14.77;;
32200;SDS011;18701;45.588;5.288;2022-12-18T06:36:56;27.58;;;15.65;;
32200;SDS011;18701;45.588;5.288;2022-12-18T06:39:21;24.63;;;13.80;;
32200;SDS011;18701;45.588;5.288;2022-12-18T06:41:47;26.48;;;14.65;;
32200;SDS011;18701;45.588;5.288;2022-12-18T06:44:12;27.85;;;13.95;;
32200;SDS011;18701;45.588;5.288;2022-12-18T06:46:38;27.10;;;14.35;;
32200;SDS011;18701;45.588;5.288;2022-12-18T06:49:04;25.15;;;14.45;;
32200;SDS011;18701;45.588;5.288;2022-12-18T06:51:29;27.70;;;14.10;;
32200;SDS011;18701;45.588;5.288;2022-12-18T06:53:55;29.13;;;14.82;;
32200;SDS011;18701;45.588;5.288;2022-12-18T06:56:21;28.60;;;13.95;;
32200;SDS011;18701;45.588;5.288;2022-12-18T06:58:47;25.23;;;13.50;;
32200;SDS011;18701;45.588;5.288;2022-12-18T07:01:15;28.05;;;14.10;;
32200;SDS011;18701;45.588;5.288;2022-12-18T07:03:41;27.42;;;14.63;;
32200;SDS011;18701;45.588;5.288;2022-12-18T07:06:12;26.73;;;13.73;;
32200;SDS011;18701;45.588;5.288;2022-12-18T07:08:39;25.55;;;13.05;;
32200;SDS011;18701;45.588;5.288;2022-12-18T07:11:05;24.45;;;13.35;;
32200;SDS011;18701;45.588;5.288;2022-12-18T07:13:31;21.65;;;12.00;;
32200;SDS011;18701;45.588;5.288;2022-12-18T07:16:03;23.85;;;13.27;;
32200;SDS011;18701;45.588;5.288;2022-12-18T07:18:39;27.13;;;13.52;;
32200;SDS011;18701;45.588;5.288;2022-12-18T07:21:05;24.88;;;13.23;;
32200;SDS011;18701;45.588;5.288;2022-12-18T07:23:33;28.73;;;12.75;;
32200;SDS011;18701;45.588;5.288;2022-12-18T07:26:06;23.88;;;12.88;;
32200;SDS011;18701;45.588;5.288;2022-12-18T07:28:37;24.40;;;13.48;;
32200;SDS011;18701;45.588;5.288;2022-12-18T07:31:04;25.38;;;13.10;;
32200;SDS011;18701;45.588;5.288;2022-12-18T07:33:32;29.45;;;15.23;;
32200;SDS011;18701;45.588;5.288;2022-12-18T07:35:59;27.88;;;13.90;;
32200;SDS011;18701;45.588;5.288;2022-12-18T07:38:28;26.65;;;13.88;;
32200;SDS011;18701;45.588;5.288;2022-12-18T07:40:59;26.95;;;14.10;;
32200;SDS011;18701;45.588;5.288;2022-12-18T07:45:55;23.77;;;13.02;;
32200;SDS011;18701;45.588;5.288;2022-12-18T07:48:20;23.90;;;12.95;;
32200;SDS011;18701;45.588;5.288;2022-12-18T07:50:46;24.08;;;12.85;;
32200;SDS011;18701;45.588;5.288;2022-12-18T07:53:12;23.40;;;13.30;;
32200;SDS011;18701;45.588;5.288;2022-12-18T07:55:37;23.75;;;12.98;;
32200;SDS011;18701;45.588;5.288;2022-12-18T07:58:03;21.83;;;12.32;;
32200;SDS011;18701;45.588;5.288;2022-12-18T08:00:29;22.10;;;12.38;;
32200;SDS011;18701;45.588;5.288;2022-12-18T08:02:56;24.90;;;13.45;;
32200;SDS011;18701;45.588;5.288;2022-12-18T08:05:22;25.00;;;13.07;;
32200;SDS011;18701;45.588;5.288;2022-12-18T08:07:48;28.02;;;13.05;;
32200;SDS011;18701;45.588;5.288;2022-12-18T08:10:14;23.40;;;11.70;;
32200;SDS011;18701;45.588;5.288;2022-12-18T08:12:40;19.90;;;11.77;;
32200;SDS011;18701;45.588;5.288;2022-12-18T08:15:06;27.38;;;12.77;;
32200;SDS011;18701;45.588;5.288;2022-12-18T08:17:32;22.50;;;12.27;;
32200;SDS011;18701;45.588;5.288;2022-12-18T08:19:57;21.65;;;12.05;;
32200;SDS011;18701;45.588;5.288;2022-12-18T08:22:23;21.60;;;11.45;;
32200;SDS011;18701;45.588;5.288;2022-12-18T08:24:49;24.23;;;12.68;;
32200;SDS011;18701;45.588;5.288;2022-12-18T08:27:14;22.02;;;11.57;;
32200;SDS011;18701;45.588;5.288;2022-12-18T08:29:40;20.27;;;10.95;;
32200;SDS011;18701;45.588;5.288;2022-12-18T08:32:05;21.25;;;10.60;;
32200;SDS011;18701;45.588;5.288;2022-12-18T08:34:31;18.08;;;10.00;;
32200;SDS011;18701;45.588;5.288;2022-12-18T08:36:57;18.90;;;10.45;;
32200;SDS011;18701;45.588;5.288;2022-12-18T08:39:22;22.48;;;10.57;;
32200;SDS011;18701;45.588;5.288;2022-12-18T08:41:48;18.83;;;10.07;;
32200;SDS011;18701;45.588;5.288;2022-12-18T08:44:34;17.02;;;9.30;;
32200;SDS011;18701;45.588;5.288;2022-12-18T08:47:02;16.73;;;9.27;;
32200;SDS011;18701;45.588;5.288;2022-12-18T08:49:28;20.30;;;11.35;;
32200;SDS011;18701;45.588;5.288;2022-12-18T08:51:54;20.05;;;10.30;;
32200;SDS011;18701;45.588;5.288;2022-12-18T08:54:22;19.85;;;10.43;;
32200;SDS011;18701;45.588;5.288;2022-12-18T08:56:47;18.08;;;9.70;;
32200;SDS011;18701;45.588;5.288;2022-12-18T08:59:14;16.02;;;8.80;;
32200;SDS011;18701;45.588;5.288;2022-12-18T09:01:40;17.92;;;10.02;;
32200;SDS011;18701;45.588;5.288;2022-12-18T09:04:07;17.48;;;10.13;;
32200;SDS011;18701;45.588;5.288;2022-12-18T09:06:33;17.70;;;10.43;;
32200;SDS011;18701;45.588;5.288;2022-12-18T09:08:59;22.05;;;9.85;;
32200;SDS011;18701;45.588;5.288;2022-12-18T09:11:26;15.82;;;9.40;;
32200;SDS011;18701;45.588;5.288;2022-12-18T09:13:53;17.73;;;9.20;;
32200;SDS011;18701;45.588;5.288;2022-12-18T09:16:19;18.02;;;9.90;;
32200;SDS011;18701;45.588;5.288;2022-12-18T09:18:46;19.35;;;9.30;;
32200;SDS011;18701;45.588;5.288;2022-12-18T09:21:13;19.55;;;11.10;;
32200;SDS011;18701;45.588;5.288;2022-12-18T09:23:40;18.92;;;10.48;;
32200;SDS011;18701;45.588;5.288;2022-12-18T09:26:06;16.40;;;9.20;;
32200;SDS011;18701;45.588;5.288;2022-12-18T09:28:32;22.25;;;10.55;;
32200;SDS011;18701;45.588;5.288;2022-12-18T09:30:58;21.85;;;10.82;;
32200;SDS011;18701;45.588;5.288;2022-12-18T09:33:23;17.90;;;9.88;;
32200;SDS011;18701;45.588;5.288;2022-12-18T09:35:49;17.13;;;9.50;;
32200;SDS011;18701;45.588;5.288;2022-12-18T09:38:16;16.55;;;9.18;;
32200;SDS011;18701;45.588;5.288;2022-12-18T09:43:33;17.63;;;8.95;;
32200;SDS011;18701;45.588;5.288;2022-12-18T09:46:07;16.35;;;7.88;;
32200;SDS011;18701;45.588;5.288;2022-12-18T09:48:36;14.43;;;8.00;;
32200;SDS011;18701;45.588;5.288;2022-12-18T09:51:09;14.23;;;8.40;;
32200;SDS011;18701;45.588;5.288;2022-12-18T09:53:40;16.73;;;9.43;;
32200;SDS011;18701;45.588;5.288;2022-12-18T09:56:12;14.23;;;8.75;;
32200;SDS011;18701;45.588;5.288;2022-12-18T09:58:42;14.50;;;8.13;;
32200;SDS011;18701;45.588;5.288;2022-12-18T10:01:15;14.02;;;7.90;;
32200;SDS011;18701;45.588;5.288;2022-12-18T10:03:49;12.05;;;8.02;;
32200;SDS011;18701;45.588;5.288;2022-12-18T10:11:31;14.60;;;8.32;;
32200;SDS011;18701;45.588;5.288;2022-12-18T10:14:13;15.57;;;8.77;;
32200;SDS011;18701;45.588;5.288;2022-12-18T10:19:55;17.83;;;9.65;;
32200;SDS011;18701;45.588;5.288;2022-12-18T10:22:26;15.85;;;8.75;;
32200;SDS011;18701;45.588;5.288;2022-12-18T10:25:25;17.80;;;9.63;;
32200;SDS011;18701;45.588;5.288;2022-12-18T10:28:12;17.38;;;9.52;;
32200;SDS011;18701;45.588;5.288;2022-12-18T10:30:40;16.88;;;9.27;;
32200;SDS011;18701;45.588;5.288;2022-12-18T10:33:10;17.92;;;9.75;;
32200;SDS011;18701;45.588;5.288;2022-12-18T10:35:44;17.45;;;9.52;;
32200;SDS011;18701;45.588;5.288;2022-12-18T10:43:28;18.70;;;10.15;;
32200;SDS011;18701;45.588;5.288;2022-12-18T10:46:02;17.20;;;9.40;;
32200;SDS011;18701;45.588;5.288;2022-12-18T10:48:33;30.02;;;15.38;;
32200;SDS011;18701;45.588;5.288;2022-12-18T10:51:16;16.35;;;9.95;;
32200;SDS011;18701;45.588;5.288;2022-12-18T10:53:57;19.10;;;10.48;;
32200;SDS011;18701;45.588;5.288;2022-12-18T10:56:27;20.17;;;9.85;;
32200;SDS011;18701;45.588;5.288;2022-12-18T10:58:59;14.43;;;8.88;;
32200;SDS011;18701;45.588;5.288;2022-12-18T11:01:27;18.20;;;9.27;;
32200;SDS011;18701;45.588;5.288;2022-12-18T11:06:22;13.90;;;8.20;;
32200;SDS011;18701;45.588;5.288;2022-12-18T11:09:03;14.52;;;7.97;;
32200;SDS011;18701;45.588;5.288;2022-12-18T11:11:30;13.82;;;7.63;;
32200;SDS011;18701;45.588;5.288;2022-12-18T11:14:05;16.02;;;7.97;;
32200;SDS011;18701;45.588;5.288;2022-12-18T11:16:42;14.35;;;7.93;;
32200;SDS011;18701;45.588;5.288;2022-12-18T11:21:56;10.07;;;6.85;;
32200;SDS011;18701;45.588;5.288;2022-12-18T11:24:32;13.23;;;8.18;;
32200;SDS011;18701;45.588;5.288;2022-12-18T11:27:03;12.23;;;7.22;;
32200;SDS011;18701;45.588;5.288;2022-12-18T11:29:38;9.70;;;6.40;;
32200;SDS011;18701;45.588;5.288;2022-12-18T11:34:50;9.52;;;5.63;;
32200;SDS011;18701;45.588;5.288;2022-12-18T11:37:23;8.07;;;5.53;;
32200;SDS011;18701;45.588;5.288;2022-12-18T11:42:21;9.20;;;5.05;;
32200;SDS011;18701;45.588;5.288;2022-12-18T11:45:08;6.57;;;4.80;;
32200;SDS011;18701;45.588;5.288;2022-12-18T11:47:52;5.30;;;4.43;;
32200;SDS011;18701;45.588;5.288;2022-12-18T11:50:26;5.00;;;4.15;;
32200;SDS011;18701;45.588;5.288;2022-12-18T11:52:58;4.95;;;4.00;;
32200;SDS011;18701;45.588;5.288;2022-12-18T11:57:59;8.88;;;4.00;;
32200;SDS011;18701;45.588;5.288;2022-12-18T12:00:49;5.57;;;3.92;;
32200;SDS011;18701;45.588;5.288;2022-12-18T12:14:29;8.02;;;3.67;;
32200;SDS011;18701;45.588;5.288;2022-12-18T12:17:11;4.57;;;3.00;;
32200;SDS011;18701;45.588;5.288;2022-12-18T12:37:33;4.07;;;3.20;;
32200;SDS011;18701;45.588;5.288;2022-12-18T12:39:36;5.70;;;3.05;;
32200;SDS011;18701;45.588;5.288;2022-12-18T12:42:10;5.28;;;3.30;;
32200;SDS011;18701;45.588;5.288;2022-12-18T12:45:36;4.00;;;3.40;;
32200;SDS011;18701;45.588;5.288;2022-12-18T12:50:54;5.13;;;3.65;;
32200;SDS011;18701;45.588;5.288;2022-12-18T12:53:24;5.20;;;4.20;;
32200;SDS011;18701;45.588;5.288;2022-12-18T13:06:19;4.50;;;3.63;;
32200;SDS011;18701;45.588;5.288;2022-12-18T13:08:55;5.00;;;3.78;;
32200;SDS011;18701;45.588;5.288;2022-12-18T13:11:44;4.95;;;4.10;;
32200;SDS011;18701;45.588;5.288;2022-12-18T13:14:32;6.95;;;3.63;;
32200;SDS011;18701;45.588;5.288;2022-12-18T13:30:41;5.07;;;2.88;;
32200;SDS011;18701;45.588;5.288;2022-12-18T13:38:21;5.82;;;4.63;;
32200;SDS011;18701;45.588;5.288;2022-12-18T13:43:20;5.65;;;4.00;;
32200;SDS011;18701;45.588;5.288;2022-12-18T13:45:50;5.95;;;3.65;;
32200;SDS011;18701;45.588;5.288;2022-12-18T13:48:27;6.65;;;3.40;;
32200;SDS011;18701;45.588;5.288;2022-12-18T13:51:05;6.55;;;3.58;;
32200;SDS011;18701;45.588;5.288;2022-12-18T13:53:37;7.00;;;3.85;;
32200;SDS011;18701;45.588;5.288;2022-12-18T13:56:08;6.75;;;4.03;;
32200;SDS011;18701;45.588;5.288;2022-12-18T13:58:34;7.45;;;3.55;;
32200;SDS011;18701;45.588;5.288;2022-12-18T14:00:59;5.57;;;4.15;;
32200;SDS011;18701;45.588;5.288;2022-12-18T14:03:27;6.90;;;3.78;;
32200;SDS011;18701;45.588;5.288;2022-12-18T14:06:06;7.18;;;4.03;;
32200;SDS011;18701;45.588;5.288;2022-12-18T14:08:35;5.93;;;3.58;;
32200;SDS011;18701;45.588;5.288;2022-12-18T14:11:07;5.53;;;3.70;;
32200;SDS011;18701;45.588;5.288;2022-12-18T14:13:44;10.18;;;4.47;;
32200;SDS011;18701;45.588;5.288;2022-12-18T14:16:12;7.18;;;3.58;;
32200;SDS011;18701;45.588;5.288;2022-12-18T14:18:48;5.07;;;3.67;;
32200;SDS011;18701;45.588;5.288;2022-12-18T14:21:20;6.30;;;3.92;;
32200;SDS011;18701;45.588;5.288;2022-12-18T14:23:48;7.30;;;4.68;;
32200;SDS011;18701;45.588;5.288;2022-12-18T14:26:28;10.13;;;5.57;;
32200;SDS011;18701;45.588;5.288;2022-12-18T14:28:55;8.18;;;4.60;;
32200;SDS011;18701;45.588;5.288;2022-12-18T14:31:26;11.43;;;5.55;;
32200;SDS011;18701;45.588;5.288;2022-12-18T14:33:54;7.43;;;5.20;;
32200;SDS011;18701;45.588;5.288;2022-12-18T14:36:21;9.35;;;5.85;;
32200;SDS011;18701;45.588;5.288;2022-12-18T14:38:50;9.63;;;5.60;;
32200;SDS011;18701;45.588;5.288;2022-12-18T14:41:18;11.93;;;6.05;;
32200;SDS011;18701;45.588;5.288;2022-12-18T14:43:52;8.82;;;5.25;;
32200;SDS011;18701;45.588;5.288;2022-12-18T14:46:35;10.02;;;5.50;;
32200;SDS011;18701;45.588;5.288;2022-12-18T14:49:03;11.85;;;6.40;;
32200;SDS011;18701;45.588;5.288;2022-12-18T14:51:47;13.60;;;6.20;;
32200;SDS011;18701;45.588;5.288;2022-12-18T14:54:16;9.20;;;6.03;;
32200;SDS011;18701;45.588;5.288;2022-12-18T14:56:44;8.55;;;5.32;;
32200;SDS011;18701;45.588;5.288;2022-12-18T14:59:15;10.90;;;5.90;;
32200;SDS011;18701;45.588;5.288;2022-12-18T15:01:46;13.95;;;6.88;;
32200;SDS011;18701;45.588;5.288;2022-12-18T15:04:29;13.98;;;7.43;;
32200;SDS011;18701;45.588;5.288;2022-12-18T15:07:14;19.67;;;8.60;;
32200;SDS011;18701;45.588;5.288;2022-12-18T15:10:10;13.90;;;8.30;;
32200;SDS011;18701;45.588;5.288;2022-12-18T15:12:45;15.02;;;8.63;;
32200;SDS011;18701;45.588;5.288;2022-12-18T15:18:03;11.13;;;6.93;;
32200;SDS011;18701;45.588;5.288;2022-12-18T15:20:32;11.43;;;6.38;;
32200;SDS011;18701;45.588;5.288;2022-12-18T15:23:05;15.23;;;6.75;;
32200;SDS011;18701;45.588;5.288;2022-12-18T15:25:37;11.73;;;7.07;;
32200;SDS011;18701;45.588;5.288;2022-12-18T15:28:04;10.95;;;6.82;;
32200;SDS011;18701;45.588;5.288;2022-12-18T15:33:39;9.60;;;6.60;;
32200;SDS011;18701;45.588;5.288;2022-12-18T15:36:25;8.65;;;5.47;;
32200;SDS011;18701;45.588;5.288;2022-12-18T15:38:52;11.35;;;6.35;;
32200;SDS011;18701;45.588;5.288;2022-12-18T15:41:20;10.75;;;6.72;;
32200;SDS011;18701;45.588;5.288;2022-12-18T15:43:47;10.60;;;6.15;;
32200;SDS011;18701;45.588;5.288;2022-12-18T15:48:58;13.20;;;6.25;;
32200;SDS011;18701;45.588;5.288;2022-12-18T15:53:54;10.27;;;6.30;;
32200;SDS011;18701;45.588;5.288;2022-12-18T15:56:22;10.45;;;6.07;;
32200;SDS011;18701;45.588;5.288;2022-12-18T16:01:37;12.95;;;6.45;;
32200;SDS011;18701;45.588;5.288;2022-12-18T16:04:02;13.02;;;7.70;;
32200;SDS011;18701;45.588;5.288;2022-12-18T16:06:28;13.77;;;6.40;;
32200;SDS011;18701;45.588;5.288;2022-12-18T16:08:54;14.50;;;6.70;;
32200;SDS011;18701;45.588;5.288;2022-12-18T16:11:21;12.80;;;6.97;;
32200;SDS011;18701;45.588;5.288;2022-12-18T16:14:04;11.88;;;6.90;;
32200;SDS011;18701;45.588;5.288;2022-12-18T16:16:30;12.90;;;6.88;;
32200;SDS011;18701;45.588;5.288;2022-12-18T16:18:56;14.70;;;6.28;;
32200;SDS011;18701;45.588;5.288;2022-12-18T16:21:21;12.50;;;6.40;;
32200;SDS011;18701;45.588;5.288;2022-12-18T16:23:47;9.13;;;5.38;;
32200;SDS011;18701;45.588;5.288;2022-12-18T16:26:13;12.60;;;5.68;;
32200;SDS011;18701;45.588;5.288;2022-12-18T16:28:38;10.35;;;6.35;;
32200;SDS011;18701;45.588;5.288;2022-12-18T16:31:04;10.40;;;6.53;;
32200;SDS011;18701;45.588;5.288;2022-12-18T16:33:30;14.85;;;6.95;;
32200;SDS011;18701;45.588;5.288;2022-12-18T16:35:55;16.42;;;7.45;;
32200;SDS011;18701;45.588;5.288;2022-12-18T16:38:21;11.20;;;6.63;;
32200;SDS011;18701;45.588;5.288;2022-12-18T16:40:47;14.85;;;7.43;;
32200;SDS011;18701;45.588;5.288;2022-12-18T16:43:31;11.70;;;7.07;;
32200;SDS011;18701;45.588;5.288;2022-12-18T16:45:58;14.90;;;7.43;;
32200;SDS011;18701;45.588;5.288;2022-12-18T16:48:24;12.40;;;7.43;;
32200;SDS011;18701;45.588;5.288;2022-12-18T16:50:49;15.45;;;7.93;;
32200;SDS011;18701;45.588;5.288;2022-12-18T16:53:24;11.55;;;7.55;;
32200;SDS011;18701;45.588;5.288;2022-12-18T16:55:53;12.63;;;7.50;;
32200;SDS011;18701;45.588;5.288;2022-12-18T16:58:19;11.88;;;7.38;;
32200;SDS011;18701;45.588;5.288;2022-12-18T17:00:45;12.40;;;7.70;;